Mooleyville, Kentucky
Current Conditions -  °F | °C
As of 8:58 PM on Saturday 22 Nov 2014 (Local Time) from KFTK Reporting Station
Scattered Clouds Scattered Clouds  
Wind Chill: 46°   Ceiling: Unl
Heat Index: 49°   Visibility: 10mi
Dew Point: 33°   Wind: 9mph
Humidity: 53%   Direction: 170°S
Pressure: 30.06"   Gusts: NA
Location:  37.7834°N, 86.4612°W
Report Text: KFTK 230258Z AUTO 17008KT 10SM FEW130 SCT150 10/01 A3006 RMK AO2 SLP183 T00970005 55012
Loading
Personal Weather Stations






























Interactive Weather Map New forecast layout! Learn more

10-Day Weather Forecast

Advertisements
Track Severe Weather on mobile